sensor_id;sensor_type;location;lat;lon;timestamp;P1;durP1;ratioP1;P2;durP2;ratioP2
70829;SDS011;58451;51.550;7.208;2023-07-13T00:00:09;9.00;;;1.40;;
70829;SDS011;58451;51.550;7.208;2023-07-13T00:01:45;7.10;;;1.30;;
70829;SDS011;58451;51.550;7.208;2023-07-13T00:03:20;5.50;;;1.10;;
70829;SDS011;58451;51.550;7.208;2023-07-13T00:04:51;6.20;;;1.60;;
70829;SDS011;58451;51.550;7.208;2023-07-13T00:06:23;8.50;;;1.50;;
70829;SDS011;58451;51.550;7.208;2023-07-13T00:07:55;7.20;;;1.70;;
70829;SDS011;58451;51.550;7.208;2023-07-13T00:09:26;7.90;;;1.40;;
70829;SDS011;58451;51.550;7.208;2023-07-13T00:10:58;6.90;;;1.30;;
70829;SDS011;58451;51.550;7.208;2023-07-13T00:12:33;5.60;;;1.10;;
70829;SDS011;58451;51.550;7.208;2023-07-13T00:14:07;8.00;;;1.10;;
70829;SDS011;58451;51.550;7.208;2023-07-13T00:15:39;10.50;;;1.90;;
70829;SDS011;58451;51.550;7.208;2023-07-13T00:17:11;9.70;;;1.30;;
70829;SDS011;58451;51.550;7.208;2023-07-13T00:18:44;8.70;;;1.20;;
70829;SDS011;58451;51.550;7.208;2023-07-13T00:20:17;7.50;;;1.30;;
70829;SDS011;58451;51.550;7.208;2023-07-13T00:21:48;7.00;;;1.50;;
70829;SDS011;58451;51.550;7.208;2023-07-13T00:23:19;7.00;;;1.30;;
70829;SDS011;58451;51.550;7.208;2023-07-13T00:24:52;8.00;;;1.40;;
70829;SDS011;58451;51.550;7.208;2023-07-13T00:26:24;5.70;;;1.00;;
70829;SDS011;58451;51.550;7.208;2023-07-13T00:27:56;7.80;;;1.50;;
70829;SDS011;58451;51.550;7.208;2023-07-13T00:29:29;5.30;;;1.20;;
70829;SDS011;58451;51.550;7.208;2023-07-13T00:31:01;6.00;;;1.20;;
70829;SDS011;58451;51.550;7.208;2023-07-13T00:32:32;7.60;;;1.20;;
70829;SDS011;58451;51.550;7.208;2023-07-13T00:34:04;6.20;;;1.30;;
70829;SDS011;58451;51.550;7.208;2023-07-13T00:35:35;7.10;;;1.40;;
70829;SDS011;58451;51.550;7.208;2023-07-13T00:37:07;5.20;;;1.00;;
70829;SDS011;58451;51.550;7.208;2023-07-13T00:38:38;6.90;;;1.10;;
70829;SDS011;58451;51.550;7.208;2023-07-13T00:40:12;6.50;;;1.00;;
70829;SDS011;58451;51.550;7.208;2023-07-13T00:41:45;5.90;;;1.30;;
70829;SDS011;58451;51.550;7.208;2023-07-13T00:43:19;7.30;;;1.10;;
70829;SDS011;58451;51.550;7.208;2023-07-13T00:46:06;6.30;;;1.20;;
70829;SDS011;58451;51.550;7.208;2023-07-13T00:46:57;4.00;;;0.80;;
70829;SDS011;58451;51.550;7.208;2023-07-13T00:48:32;5.10;;;1.00;;
70829;SDS011;58451;51.550;7.208;2023-07-13T00:50:09;5.90;;;0.90;;
70829;SDS011;58451;51.550;7.208;2023-07-13T00:53:27;7.00;;;0.90;;
70829;SDS011;58451;51.550;7.208;2023-07-13T00:55:02;4.30;;;1.00;;
70829;SDS011;58451;51.550;7.208;2023-07-13T00:56:35;6.30;;;1.20;;
70829;SDS011;58451;51.550;7.208;2023-07-13T00:58:08;5.80;;;1.00;;
70829;SDS011;58451;51.550;7.208;2023-07-13T00:59:42;6.60;;;0.90;;
70829;SDS011;58451;51.550;7.208;2023-07-13T01:01:16;7.60;;;1.10;;
70829;SDS011;58451;51.550;7.208;2023-07-13T01:02:47;7.00;;;1.00;;
70829;SDS011;58451;51.550;7.208;2023-07-13T01:04:19;5.50;;;0.70;;
70829;SDS011;58451;51.550;7.208;2023-07-13T01:05:51;6.50;;;1.20;;
70829;SDS011;58451;51.550;7.208;2023-07-13T01:07:25;10.70;;;1.20;;
70829;SDS011;58451;51.550;7.208;2023-07-13T01:08:57;5.00;;;0.90;;
70829;SDS011;58451;51.550;7.208;2023-07-13T01:10:31;8.40;;;0.90;;
70829;SDS011;58451;51.550;7.208;2023-07-13T01:12:09;5.20;;;0.70;;
70829;SDS011;58451;51.550;7.208;2023-07-13T01:13:40;5.90;;;1.00;;
70829;SDS011;58451;51.550;7.208;2023-07-13T01:15:40;3.20;;;0.70;;
70829;SDS011;58451;51.550;7.208;2023-07-13T01:17:16;6.40;;;1.00;;
70829;SDS011;58451;51.550;7.208;2023-07-13T01:18:47;3.70;;;0.70;;
70829;SDS011;58451;51.550;7.208;2023-07-13T01:20:20;5.70;;;1.10;;
70829;SDS011;58451;51.550;7.208;2023-07-13T01:21:52;5.20;;;0.90;;
70829;SDS011;58451;51.550;7.208;2023-07-13T01:23:26;5.20;;;1.00;;
70829;SDS011;58451;51.550;7.208;2023-07-13T01:24:59;7.50;;;1.00;;
70829;SDS011;58451;51.550;7.208;2023-07-13T01:26:30;4.60;;;0.80;;
70829;SDS011;58451;51.550;7.208;2023-07-13T01:28:06;6.80;;;0.90;;
70829;SDS011;58451;51.550;7.208;2023-07-13T01:29:44;5.80;;;1.00;;
70829;SDS011;58451;51.550;7.208;2023-07-13T01:31:17;4.60;;;0.80;;
70829;SDS011;58451;51.550;7.208;2023-07-13T01:32:48;8.00;;;0.80;;
70829;SDS011;58451;51.550;7.208;2023-07-13T01:34:19;5.20;;;0.80;;
70829;SDS011;58451;51.550;7.208;2023-07-13T01:35:50;6.30;;;0.80;;
70829;SDS011;58451;51.550;7.208;2023-07-13T01:37:24;6.40;;;0.60;;
70829;SDS011;58451;51.550;7.208;2023-07-13T01:38:56;7.00;;;1.00;;
70829;SDS011;58451;51.550;7.208;2023-07-13T01:40:29;5.40;;;0.80;;
70829;SDS011;58451;51.550;7.208;2023-07-13T01:42:01;6.20;;;0.90;;
70829;SDS011;58451;51.550;7.208;2023-07-13T01:43:33;4.70;;;1.20;;
70829;SDS011;58451;51.550;7.208;2023-07-13T01:45:04;5.50;;;1.00;;
70829;SDS011;58451;51.550;7.208;2023-07-13T01:46:36;5.00;;;0.90;;
70829;SDS011;58451;51.550;7.208;2023-07-13T01:48:07;5.60;;;0.90;;
70829;SDS011;58451;51.550;7.208;2023-07-13T01:49:38;4.10;;;0.80;;
70829;SDS011;58451;51.550;7.208;2023-07-13T01:51:09;5.70;;;1.00;;
70829;SDS011;58451;51.550;7.208;2023-07-13T01:52:41;4.60;;;0.80;;
70829;SDS011;58451;51.550;7.208;2023-07-13T01:54:12;4.90;;;0.90;;
70829;SDS011;58451;51.550;7.208;2023-07-13T01:55:43;5.30;;;0.80;;
70829;SDS011;58451;51.550;7.208;2023-07-13T01:57:15;6.10;;;1.20;;
70829;SDS011;58451;51.550;7.208;2023-07-13T01:58:46;4.90;;;1.10;;
70829;SDS011;58451;51.550;7.208;2023-07-13T02:00:18;7.10;;;0.80;;
70829;SDS011;58451;51.550;7.208;2023-07-13T02:01:52;6.30;;;0.80;;
70829;SDS011;58451;51.550;7.208;2023-07-13T02:03:24;4.90;;;0.90;;
70829;SDS011;58451;51.550;7.208;2023-07-13T02:04:56;6.00;;;0.90;;
70829;SDS011;58451;51.550;7.208;2023-07-13T02:06:27;4.30;;;0.50;;
70829;SDS011;58451;51.550;7.208;2023-07-13T02:07:59;3.40;;;0.60;;
70829;SDS011;58451;51.550;7.208;2023-07-13T02:09:30;4.80;;;0.70;;
70829;SDS011;58451;51.550;7.208;2023-07-13T02:11:02;7.60;;;0.90;;
70829;SDS011;58451;51.550;7.208;2023-07-13T02:12:35;6.90;;;1.00;;
70829;SDS011;58451;51.550;7.208;2023-07-13T02:14:07;6.70;;;0.90;;
70829;SDS011;58451;51.550;7.208;2023-07-13T02:15:39;4.20;;;0.80;;
70829;SDS011;58451;51.550;7.208;2023-07-13T02:17:14;3.30;;;0.70;;
70829;SDS011;58451;51.550;7.208;2023-07-13T02:18:45;5.30;;;0.60;;
70829;SDS011;58451;51.550;7.208;2023-07-13T02:20:16;3.30;;;0.60;;
70829;SDS011;58451;51.550;7.208;2023-07-13T02:21:47;2.70;;;0.60;;
70829;SDS011;58451;51.550;7.208;2023-07-13T02:23:19;4.90;;;0.90;;
70829;SDS011;58451;51.550;7.208;2023-07-13T02:24:50;4.90;;;1.00;;
70829;SDS011;58451;51.550;7.208;2023-07-13T02:26:22;3.70;;;0.80;;
70829;SDS011;58451;51.550;7.208;2023-07-13T02:27:53;3.00;;;0.70;;
70829;SDS011;58451;51.550;7.208;2023-07-13T02:29:25;3.90;;;0.50;;
70829;SDS011;58451;51.550;7.208;2023-07-13T02:31:04;4.30;;;0.70;;
70829;SDS011;58451;51.550;7.208;2023-07-13T02:32:39;5.90;;;0.80;;
70829;SDS011;58451;51.550;7.208;2023-07-13T02:34:10;6.80;;;0.90;;
70829;SDS011;58451;51.550;7.208;2023-07-13T02:35:42;2.80;;;0.50;;
70829;SDS011;58451;51.550;7.208;2023-07-13T02:37:13;3.40;;;0.60;;
70829;SDS011;58451;51.550;7.208;2023-07-13T02:38:44;4.70;;;0.70;;
70829;SDS011;58451;51.550;7.208;2023-07-13T02:40:15;5.10;;;0.70;;
70829;SDS011;58451;51.550;7.208;2023-07-13T02:41:47;4.50;;;0.90;;
70829;SDS011;58451;51.550;7.208;2023-07-13T02:43:18;3.80;;;0.60;;
70829;SDS011;58451;51.550;7.208;2023-07-13T02:44:51;4.90;;;0.60;;
70829;SDS011;58451;51.550;7.208;2023-07-13T02:46:22;4.70;;;0.70;;
70829;SDS011;58451;51.550;7.208;2023-07-13T02:47:55;4.50;;;0.70;;
70829;SDS011;58451;51.550;7.208;2023-07-13T02:49:26;5.10;;;0.70;;
70829;SDS011;58451;51.550;7.208;2023-07-13T02:50:57;4.70;;;0.70;;
70829;SDS011;58451;51.550;7.208;2023-07-13T02:52:28;4.20;;;0.60;;
70829;SDS011;58451;51.550;7.208;2023-07-13T02:54:01;6.10;;;0.80;;
70829;SDS011;58451;51.550;7.208;2023-07-13T02:55:33;3.80;;;0.80;;
70829;SDS011;58451;51.550;7.208;2023-07-13T02:57:05;4.50;;;0.70;;
70829;SDS011;58451;51.550;7.208;2023-07-13T02:58:36;7.10;;;0.70;;
70829;SDS011;58451;51.550;7.208;2023-07-13T03:00:09;5.20;;;0.70;;
70829;SDS011;58451;51.550;7.208;2023-07-13T03:01:41;6.20;;;1.00;;
70829;SDS011;58451;51.550;7.208;2023-07-13T03:03:13;5.80;;;0.80;;
70829;SDS011;58451;51.550;7.208;2023-07-13T03:04:45;4.20;;;0.90;;
70829;SDS011;58451;51.550;7.208;2023-07-13T03:06:18;8.40;;;1.10;;
70829;SDS011;58451;51.550;7.208;2023-07-13T03:07:53;4.40;;;1.00;;
70829;SDS011;58451;51.550;7.208;2023-07-13T03:09:25;4.70;;;0.80;;
70829;SDS011;58451;51.550;7.208;2023-07-13T03:11:04;4.00;;;0.60;;
70829;SDS011;58451;51.550;7.208;2023-07-13T03:12:38;5.80;;;0.90;;
70829;SDS011;58451;51.550;7.208;2023-07-13T03:14:12;5.10;;;0.60;;
70829;SDS011;58451;51.550;7.208;2023-07-13T03:15:43;7.10;;;0.90;;
70829;SDS011;58451;51.550;7.208;2023-07-13T03:17:14;5.70;;;0.60;;
70829;SDS011;58451;51.550;7.208;2023-07-13T03:18:47;5.10;;;0.80;;
70829;SDS011;58451;51.550;7.208;2023-07-13T03:20:19;5.30;;;0.90;;
70829;SDS011;58451;51.550;7.208;2023-07-13T03:21:50;4.20;;;0.80;;
70829;SDS011;58451;51.550;7.208;2023-07-13T03:23:22;2.90;;;0.60;;
70829;SDS011;58451;51.550;7.208;2023-07-13T03:24:55;6.30;;;0.80;;
70829;SDS011;58451;51.550;7.208;2023-07-13T03:26:26;4.80;;;0.80;;
70829;SDS011;58451;51.550;7.208;2023-07-13T03:27:57;4.30;;;0.70;;
70829;SDS011;58451;51.550;7.208;2023-07-13T03:29:29;4.10;;;0.70;;
70829;SDS011;58451;51.550;7.208;2023-07-13T03:31:09;6.10;;;1.10;;
70829;SDS011;58451;51.550;7.208;2023-07-13T03:32:49;4.50;;;0.80;;
70829;SDS011;58451;51.550;7.208;2023-07-13T03:34:21;4.00;;;0.70;;
70829;SDS011;58451;51.550;7.208;2023-07-13T03:35:53;2.60;;;0.60;;
70829;SDS011;58451;51.550;7.208;2023-07-13T03:37:24;5.70;;;0.80;;
70829;SDS011;58451;51.550;7.208;2023-07-13T03:38:58;5.30;;;0.80;;
70829;SDS011;58451;51.550;7.208;2023-07-13T03:40:37;6.00;;;0.90;;
70829;SDS011;58451;51.550;7.208;2023-07-13T03:42:08;8.60;;;1.10;;
70829;SDS011;58451;51.550;7.208;2023-07-13T03:43:39;4.50;;;0.80;;
70829;SDS011;58451;51.550;7.208;2023-07-13T03:45:11;7.20;;;0.80;;
70829;SDS011;58451;51.550;7.208;2023-07-13T03:46:42;4.10;;;0.50;;
70829;SDS011;58451;51.550;7.208;2023-07-13T03:48:14;6.50;;;0.80;;
70829;SDS011;58451;51.550;7.208;2023-07-13T03:49:45;4.00;;;0.80;;
70829;SDS011;58451;51.550;7.208;2023-07-13T03:51:18;6.90;;;0.90;;
70829;SDS011;58451;51.550;7.208;2023-07-13T03:52:50;5.90;;;0.80;;
70829;SDS011;58451;51.550;7.208;2023-07-13T03:54:21;5.80;;;1.00;;
70829;SDS011;58451;51.550;7.208;2023-07-13T03:55:52;5.40;;;0.80;;
70829;SDS011;58451;51.550;7.208;2023-07-13T03:57:24;6.00;;;0.90;;
70829;SDS011;58451;51.550;7.208;2023-07-13T03:58:55;6.80;;;1.00;;
70829;SDS011;58451;51.550;7.208;2023-07-13T04:00:26;5.20;;;0.80;;
70829;SDS011;58451;51.550;7.208;2023-07-13T04:01:58;4.30;;;0.70;;
70829;SDS011;58451;51.550;7.208;2023-07-13T04:03:29;6.20;;;0.80;;
70829;SDS011;58451;51.550;7.208;2023-07-13T04:05:03;5.20;;;1.00;;
70829;SDS011;58451;51.550;7.208;2023-07-13T04:06:35;6.60;;;1.10;;
70829;SDS011;58451;51.550;7.208;2023-07-13T04:08:06;6.80;;;0.80;;
70829;SDS011;58451;51.550;7.208;2023-07-13T04:09:38;6.40;;;1.30;;
70829;SDS011;58451;51.550;7.208;2023-07-13T04:11:09;4.70;;;0.90;;
70829;SDS011;58451;51.550;7.208;2023-07-13T04:12:40;4.70;;;0.80;;
70829;SDS011;58451;51.550;7.208;2023-07-13T04:14:11;6.40;;;0.80;;
70829;SDS011;58451;51.550;7.208;2023-07-13T04:15:42;4.50;;;0.80;;
70829;SDS011;58451;51.550;7.208;2023-07-13T04:17:14;6.80;;;0.80;;
70829;SDS011;58451;51.550;7.208;2023-07-13T04:18:46;3.20;;;0.80;;
70829;SDS011;58451;51.550;7.208;2023-07-13T04:20:18;3.70;;;1.00;;
70829;SDS011;58451;51.550;7.208;2023-07-13T04:21:51;4.50;;;0.80;;
70829;SDS011;58451;51.550;7.208;2023-07-13T04:23:22;6.00;;;0.80;;
70829;SDS011;58451;51.550;7.208;2023-07-13T04:24:53;8.30;;;1.00;;
70829;SDS011;58451;51.550;7.208;2023-07-13T04:26:25;4.20;;;0.70;;
70829;SDS011;58451;51.550;7.208;2023-07-13T04:27:56;5.10;;;0.80;;
70829;SDS011;58451;51.550;7.208;2023-07-13T04:29:28;5.70;;;1.00;;
70829;SDS011;58451;51.550;7.208;2023-07-13T04:30:59;6.10;;;0.90;;
70829;SDS011;58451;51.550;7.208;2023-07-13T04:32:30;5.00;;;0.80;;
70829;SDS011;58451;51.550;7.208;2023-07-13T04:34:02;6.10;;;0.70;;
70829;SDS011;58451;51.550;7.208;2023-07-13T04:35:34;4.00;;;0.70;;
70829;SDS011;58451;51.550;7.208;2023-07-13T04:37:05;7.20;;;1.10;;
70829;SDS011;58451;51.550;7.208;2023-07-13T04:38:37;4.60;;;0.90;;
70829;SDS011;58451;51.550;7.208;2023-07-13T04:40:08;7.60;;;1.50;;
70829;SDS011;58451;51.550;7.208;2023-07-13T04:41:43;8.40;;;1.00;;
70829;SDS011;58451;51.550;7.208;2023-07-13T04:43:14;6.40;;;0.90;;
70829;SDS011;58451;51.550;7.208;2023-07-13T04:44:51;5.00;;;0.90;;
70829;SDS011;58451;51.550;7.208;2023-07-13T04:46:22;6.20;;;1.10;;
70829;SDS011;58451;51.550;7.208;2023-07-13T04:47:54;8.10;;;1.00;;
70829;SDS011;58451;51.550;7.208;2023-07-13T04:49:25;7.40;;;1.10;;
70829;SDS011;58451;51.550;7.208;2023-07-13T04:50:57;5.50;;;1.10;;
70829;SDS011;58451;51.550;7.208;2023-07-13T04:52:29;6.60;;;1.20;;
70829;SDS011;58451;51.550;7.208;2023-07-13T04:54:01;7.30;;;0.80;;
70829;SDS011;58451;51.550;7.208;2023-07-13T04:55:32;5.80;;;0.80;;
70829;SDS011;58451;51.550;7.208;2023-07-13T04:57:04;6.80;;;0.90;;
70829;SDS011;58451;51.550;7.208;2023-07-13T04:58:39;6.20;;;1.00;;
70829;SDS011;58451;51.550;7.208;2023-07-13T05:00:12;3.50;;;0.80;;
70829;SDS011;58451;51.550;7.208;2023-07-13T05:01:44;5.80;;;1.10;;
70829;SDS011;58451;51.550;7.208;2023-07-13T05:03:16;4.50;;;0.90;;
70829;SDS011;58451;51.550;7.208;2023-07-13T05:04:48;7.50;;;1.70;;
70829;SDS011;58451;51.550;7.208;2023-07-13T05:06:20;4.40;;;0.90;;
70829;SDS011;58451;51.550;7.208;2023-07-13T05:07:52;4.70;;;1.10;;
70829;SDS011;58451;51.550;7.208;2023-07-13T05:09:24;7.50;;;1.20;;
70829;SDS011;58451;51.550;7.208;2023-07-13T05:10:55;7.20;;;1.10;;
70829;SDS011;58451;51.550;7.208;2023-07-13T05:12:26;7.10;;;0.90;;
70829;SDS011;58451;51.550;7.208;2023-07-13T05:13:58;8.50;;;1.20;;
70829;SDS011;58451;51.550;7.208;2023-07-13T05:15:29;5.20;;;1.00;;
70829;SDS011;58451;51.550;7.208;2023-07-13T05:17:00;5.20;;;1.00;;
70829;SDS011;58451;51.550;7.208;2023-07-13T05:18:32;6.00;;;0.90;;
70829;SDS011;58451;51.550;7.208;2023-07-13T05:20:03;5.30;;;1.10;;
70829;SDS011;58451;51.550;7.208;2023-07-13T05:21:35;6.60;;;1.10;;
70829;SDS011;58451;51.550;7.208;2023-07-13T05:23:06;5.70;;;0.80;;
70829;SDS011;58451;51.550;7.208;2023-07-13T05:24:38;6.70;;;1.10;;
70829;SDS011;58451;51.550;7.208;2023-07-13T05:26:10;6.70;;;1.20;;
70829;SDS011;58451;51.550;7.208;2023-07-13T05:27:41;6.60;;;1.00;;
70829;SDS011;58451;51.550;7.208;2023-07-13T05:29:13;6.40;;;1.00;;
70829;SDS011;58451;51.550;7.208;2023-07-13T05:30:48;6.90;;;1.20;;
70829;SDS011;58451;51.550;7.208;2023-07-13T05:32:20;6.80;;;1.30;;
70829;SDS011;58451;51.550;7.208;2023-07-13T05:33:51;7.90;;;1.40;;
70829;SDS011;58451;51.550;7.208;2023-07-13T05:35:23;4.90;;;1.00;;
70829;SDS011;58451;51.550;7.208;2023-07-13T05:36:54;7.50;;;1.20;;
70829;SDS011;58451;51.550;7.208;2023-07-13T05:38:27;7.50;;;1.30;;
70829;SDS011;58451;51.550;7.208;2023-07-13T05:39:58;5.30;;;1.10;;
70829;SDS011;58451;51.550;7.208;2023-07-13T05:41:30;8.40;;;1.50;;
70829;SDS011;58451;51.550;7.208;2023-07-13T05:43:01;5.30;;;1.10;;
70829;SDS011;58451;51.550;7.208;2023-07-13T05:44:32;5.90;;;1.00;;
70829;SDS011;58451;51.550;7.208;2023-07-13T05:46:04;8.50;;;1.50;;
70829;SDS011;58451;51.550;7.208;2023-07-13T05:47:35;6.90;;;1.60;;
70829;SDS011;58451;51.550;7.208;2023-07-13T05:49:06;7.40;;;1.40;;
70829;SDS011;58451;51.550;7.208;2023-07-13T05:50:37;9.70;;;1.40;;
70829;SDS011;58451;51.550;7.208;2023-07-13T05:52:08;7.00;;;1.50;;
70829;SDS011;58451;51.550;7.208;2023-07-13T05:53:39;8.70;;;1.80;;
70829;SDS011;58451;51.550;7.208;2023-07-13T05:55:11;7.50;;;1.60;;
70829;SDS011;58451;51.550;7.208;2023-07-13T05:56:42;6.80;;;1.50;;
70829;SDS011;58451;51.550;7.208;2023-07-13T05:58:13;6.60;;;1.40;;
70829;SDS011;58451;51.550;7.208;2023-07-13T05:59:45;9.40;;;1.50;;
70829;SDS011;58451;51.550;7.208;2023-07-13T06:01:16;6.70;;;1.30;;
70829;SDS011;58451;51.550;7.208;2023-07-13T06:02:49;7.40;;;1.50;;
70829;SDS011;58451;51.550;7.208;2023-07-13T06:04:21;6.60;;;1.50;;
70829;SDS011;58451;51.550;7.208;2023-07-13T06:05:52;5.70;;;1.10;;
70829;SDS011;58451;51.550;7.208;2023-07-13T06:07:23;7.30;;;1.60;;
70829;SDS011;58451;51.550;7.208;2023-07-13T06:08:54;7.80;;;1.70;;
70829;SDS011;58451;51.550;7.208;2023-07-13T06:10:25;8.10;;;1.50;;
70829;SDS011;58451;51.550;7.208;2023-07-13T06:11:57;8.80;;;1.50;;
70829;SDS011;58451;51.550;7.208;2023-07-13T06:13:28;7.10;;;1.40;;
70829;SDS011;58451;51.550;7.208;2023-07-13T06:14:59;8.50;;;1.70;;
70829;SDS011;58451;51.550;7.208;2023-07-13T06:16:30;9.70;;;1.80;;
70829;SDS011;58451;51.550;7.208;2023-07-13T06:18:02;8.20;;;1.50;;
70829;SDS011;58451;51.550;7.208;2023-07-13T06:19:34;8.80;;;1.70;;
70829;SDS011;58451;51.550;7.208;2023-07-13T06:21:08;10.10;;;1.80;;
70829;SDS011;58451;51.550;7.208;2023-07-13T06:22:41;4.90;;;1.40;;
70829;SDS011;58451;51.550;7.208;2023-07-13T06:24:12;7.00;;;1.70;;
70829;SDS011;58451;51.550;7.208;2023-07-13T06:25:43;8.20;;;1.80;;
70829;SDS011;58451;51.550;7.208;2023-07-13T06:27:15;7.20;;;1.80;;
70829;SDS011;58451;51.550;7.208;2023-07-13T06:28:47;9.90;;;1.60;;
70829;SDS011;58451;51.550;7.208;2023-07-13T06:30:18;8.10;;;1.90;;
70829;SDS011;58451;51.550;7.208;2023-07-13T06:31:49;7.00;;;1.40;;
70829;SDS011;58451;51.550;7.208;2023-07-13T06:33:20;8.90;;;1.90;;
70829;SDS011;58451;51.550;7.208;2023-07-13T06:34:52;6.60;;;1.60;;
70829;SDS011;58451;51.550;7.208;2023-07-13T06:36:23;7.00;;;1.50;;
70829;SDS011;58451;51.550;7.208;2023-07-13T06:37:54;8.30;;;1.90;;
70829;SDS011;58451;51.550;7.208;2023-07-13T06:39:25;10.00;;;2.10;;
70829;SDS011;58451;51.550;7.208;2023-07-13T06:40:57;6.80;;;1.60;;
70829;SDS011;58451;51.550;7.208;2023-07-13T06:42:28;7.50;;;1.50;;
70829;SDS011;58451;51.550;7.208;2023-07-13T06:43:59;8.40;;;1.50;;
70829;SDS011;58451;51.550;7.208;2023-07-13T06:45:35;6.90;;;1.60;;
70829;SDS011;58451;51.550;7.208;2023-07-13T06:47:11;8.20;;;1.60;;
70829;SDS011;58451;51.550;7.208;2023-07-13T06:48:42;7.30;;;1.70;;
70829;SDS011;58451;51.550;7.208;2023-07-13T06:50:13;10.30;;;2.00;;
70829;SDS011;58451;51.550;7.208;2023-07-13T06:51:45;10.30;;;2.50;;
70829;SDS011;58451;51.550;7.208;2023-07-13T06:53:17;8.90;;;2.10;;
70829;SDS011;58451;51.550;7.208;2023-07-13T06:54:49;9.20;;;1.90;;
70829;SDS011;58451;51.550;7.208;2023-07-13T06:56:20;9.70;;;2.20;;
70829;SDS011;58451;51.550;7.208;2023-07-13T06:57:52;9.10;;;2.10;;
70829;SDS011;58451;51.550;7.208;2023-07-13T06:59:23;8.10;;;1.90;;
70829;SDS011;58451;51.550;7.208;2023-07-13T07:00:54;7.50;;;2.00;;
70829;SDS011;58451;51.550;7.208;2023-07-13T07:02:26;9.00;;;2.70;;
70829;SDS011;58451;51.550;7.208;2023-07-13T07:03:58;9.10;;;2.20;;
70829;SDS011;58451;51.550;7.208;2023-07-13T07:05:29;8.20;;;1.80;;
70829;SDS011;58451;51.550;7.208;2023-07-13T07:07:00;7.40;;;1.90;;
70829;SDS011;58451;51.550;7.208;2023-07-13T07:08:31;8.20;;;2.30;;
70829;SDS011;58451;51.550;7.208;2023-07-13T07:10:02;11.50;;;2.20;;
70829;SDS011;58451;51.550;7.208;2023-07-13T07:11:34;7.50;;;2.00;;
70829;SDS011;58451;51.550;7.208;2023-07-13T07:13:05;9.30;;;2.30;;
70829;SDS011;58451;51.550;7.208;2023-07-13T07:14:36;9.00;;;1.90;;
70829;SDS011;58451;51.550;7.208;2023-07-13T07:16:07;9.20;;;2.10;;
70829;SDS011;58451;51.550;7.208;2023-07-13T07:17:39;7.60;;;2.10;;
70829;SDS011;58451;51.550;7.208;2023-07-13T07:19:10;8.00;;;2.00;;
70829;SDS011;58451;51.550;7.208;2023-07-13T07:20:41;9.40;;;2.20;;
70829;SDS011;58451;51.550;7.208;2023-07-13T07:22:13;8.60;;;2.20;;
70829;SDS011;58451;51.550;7.208;2023-07-13T07:23:44;7.70;;;2.10;;
70829;SDS011;58451;51.550;7.208;2023-07-13T07:25:15;9.40;;;2.50;;
70829;SDS011;58451;51.550;7.208;2023-07-13T07:26:46;10.60;;;2.60;;
70829;SDS011;58451;51.550;7.208;2023-07-13T07:28:21;7.30;;;2.30;;
70829;SDS011;58451;51.550;7.208;2023-07-13T07:29:55;8.60;;;3.10;;
70829;SDS011;58451;51.550;7.208;2023-07-13T07:31:48;9.60;;;2.80;;
70829;SDS011;58451;51.550;7.208;2023-07-13T07:33:33;6.30;;;2.20;;
70829;SDS011;58451;51.550;7.208;2023-07-13T07:35:05;9.70;;;2.90;;
70829;SDS011;58451;51.550;7.208;2023-07-13T07:36:37;10.40;;;3.00;;
70829;SDS011;58451;51.550;7.208;2023-07-13T07:38:11;8.80;;;2.80;;
70829;SDS011;58451;51.550;7.208;2023-07-13T07:39:43;10.60;;;3.50;;
70829;SDS011;58451;51.550;7.208;2023-07-13T07:41:35;9.20;;;3.20;;
70829;SDS011;58451;51.550;7.208;2023-07-13T07:43:11;9.60;;;3.30;;
70829;SDS011;58451;51.550;7.208;2023-07-13T07:44:43;9.90;;;3.30;;
70829;SDS011;58451;51.550;7.208;2023-07-13T07:46:14;7.40;;;2.90;;
70829;SDS011;58451;51.550;7.208;2023-07-13T07:47:46;9.00;;;3.10;;
70829;SDS011;58451;51.550;7.208;2023-07-13T07:49:18;10.20;;;3.90;;
70829;SDS011;58451;51.550;7.208;2023-07-13T07:50:49;7.00;;;3.10;;
70829;SDS011;58451;51.550;7.208;2023-07-13T07:52:20;10.00;;;3.50;;
70829;SDS011;58451;51.550;7.208;2023-07-13T07:53:52;10.40;;;3.00;;
70829;SDS011;58451;51.550;7.208;2023-07-13T07:55:23;7.60;;;2.50;;
70829;SDS011;58451;51.550;7.208;2023-07-13T07:57:00;11.20;;;3.60;;
70829;SDS011;58451;51.550;7.208;2023-07-13T07:58:51;7.50;;;2.70;;
70829;SDS011;58451;51.550;7.208;2023-07-13T08:00:25;8.70;;;2.90;;
70829;SDS011;58451;51.550;7.208;2023-07-13T08:02:16;8.70;;;2.80;;
70829;SDS011;58451;51.550;7.208;2023-07-13T08:04:07;10.80;;;3.50;;
70829;SDS011;58451;51.550;7.208;2023-07-13T08:05:58;9.70;;;3.10;;
70829;SDS011;58451;51.550;7.208;2023-07-13T08:07:49;9.90;;;3.70;;
70829;SDS011;58451;51.550;7.208;2023-07-13T08:09:20;8.20;;;3.10;;
70829;SDS011;58451;51.550;7.208;2023-07-13T08:10:52;8.20;;;3.00;;
70829;SDS011;58451;51.550;7.208;2023-07-13T08:12:30;8.80;;;3.10;;
70829;SDS011;58451;51.550;7.208;2023-07-13T08:14:07;7.20;;;2.50;;
70829;SDS011;58451;51.550;7.208;2023-07-13T08:15:38;7.50;;;2.70;;
70829;SDS011;58451;51.550;7.208;2023-07-13T08:17:09;8.00;;;3.20;;
70829;SDS011;58451;51.550;7.208;2023-07-13T08:18:40;9.20;;;3.20;;
70829;SDS011;58451;51.550;7.208;2023-07-13T08:20:11;9.40;;;3.10;;
70829;SDS011;58451;51.550;7.208;2023-07-13T08:21:42;9.60;;;2.90;;
70829;SDS011;58451;51.550;7.208;2023-07-13T08:23:13;10.60;;;3.60;;
70829;SDS011;58451;51.550;7.208;2023-07-13T08:24:46;10.70;;;3.70;;
70829;SDS011;58451;51.550;7.208;2023-07-13T08:26:18;9.30;;;3.30;;
70829;SDS011;58451;51.550;7.208;2023-07-13T08:27:49;8.40;;;3.30;;
70829;SDS011;58451;51.550;7.208;2023-07-13T08:29:20;7.50;;;3.10;;
70829;SDS011;58451;51.550;7.208;2023-07-13T08:30:51;8.70;;;2.80;;
70829;SDS011;58451;51.550;7.208;2023-07-13T08:32:23;8.20;;;3.00;;
70829;SDS011;58451;51.550;7.208;2023-07-13T08:33:54;7.30;;;2.90;;
70829;SDS011;58451;51.550;7.208;2023-07-13T08:35:25;7.60;;;3.10;;
70829;SDS011;58451;51.550;7.208;2023-07-13T08:36:57;8.80;;;3.20;;
70829;SDS011;58451;51.550;7.208;2023-07-13T08:38:28;6.20;;;2.70;;
70829;SDS011;58451;51.550;7.208;2023-07-13T08:39:59;9.20;;;3.40;;
70829;SDS011;58451;51.550;7.208;2023-07-13T08:41:30;7.00;;;2.80;;
70829;SDS011;58451;51.550;7.208;2023-07-13T08:43:02;8.40;;;3.20;;
70829;SDS011;58451;51.550;7.208;2023-07-13T08:46:42;11.10;;;3.10;;
70829;SDS011;58451;51.550;7.208;2023-07-13T08:48:31;9.30;;;3.10;;
70829;SDS011;58451;51.550;7.208;2023-07-13T08:50:05;9.10;;;2.90;;
70829;SDS011;58451;51.550;7.208;2023-07-13T08:53:34;7.00;;;2.50;;
70829;SDS011;58451;51.550;7.208;2023-07-13T08:55:15;8.40;;;2.70;;
70829;SDS011;58451;51.550;7.208;2023-07-13T08:57:03;7.80;;;2.50;;
70829;SDS011;58451;51.550;7.208;2023-07-13T08:58:51;7.60;;;2.90;;
70829;SDS011;58451;51.550;7.208;2023-07-13T09:00:37;9.80;;;2.70;;
70829;SDS011;58451;51.550;7.208;2023-07-13T09:02:29;6.70;;;2.00;;
70829;SDS011;58451;51.550;7.208;2023-07-13T09:04:16;8.70;;;2.60;;
70829;SDS011;58451;51.550;7.208;2023-07-13T09:05:57;7.00;;;2.30;;
70829;SDS011;58451;51.550;7.208;2023-07-13T09:07:43;5.90;;;1.80;;
70829;SDS011;58451;51.550;7.208;2023-07-13T09:09:37;8.20;;;2.40;;
70829;SDS011;58451;51.550;7.208;2023-07-13T09:13:40;4.80;;;1.30;;
70829;SDS011;58451;51.550;7.208;2023-07-13T09:16:58;6.60;;;2.00;;
70829;SDS011;58451;51.550;7.208;2023-07-13T09:18:34;7.00;;;2.00;;
70829;SDS011;58451;51.550;7.208;2023-07-13T09:20:24;8.60;;;2.60;;
70829;SDS011;58451;51.550;7.208;2023-07-13T09:22:03;7.50;;;2.20;;
70829;SDS011;58451;51.550;7.208;2023-07-13T09:23:37;9.10;;;2.30;;
70829;SDS011;58451;51.550;7.208;2023-07-13T09:25:21;5.70;;;2.00;;
70829;SDS011;58451;51.550;7.208;2023-07-13T09:26:56;7.70;;;2.30;;
70829;SDS011;58451;51.550;7.208;2023-07-13T09:28:34;7.80;;;2.40;;
70829;SDS011;58451;51.550;7.208;2023-07-13T09:31:50;6.60;;;1.90;;
70829;SDS011;58451;51.550;7.208;2023-07-13T09:33:25;8.40;;;2.00;;